Time;durP1;ratioP1;P1;durP2;ratioP2;P2;SDS_P1;SDS_P2;PMS_P1;PMS_P2;Temp;Humidity;BMP_temperature;BMP_pressure;BME280_temperature;BME280_humidity;BME280_pressure;Samples;Min_cycle;Max_cycle;Signal;HPM_P1;HPM_P2
2022/06/23 00:00:05;;;;;;;;;;;14.50;99.90;;;;;;5074395;28;20047;-52
2022/06/23 00:02:33;;;;;;;14.25;10.13;;;14.50;99.90;;;;;;5073938;28;20390;-51
2022/06/23 00:04:59;;;;;;;;;;;14.50;99.90;;;;;;5074145;28;20044;-49
2022/06/23 00:07:29;;;;;;;10.23;8.88;;;14.40;99.90;;;;;;5073668;28;19928;-53
2022/06/23 00:10:00;;;;;;;10.57;8.20;;;14.40;99.90;;;;;;5073886;28;20080;-51
2022/06/23 00:12:30;;;;;;;11.95;8.38;;;14.40;99.90;;;;;;5073834;28;20079;-49
2022/06/23 00:15:17;;;;;;;11.32;8.45;;;14.40;99.90;;;;;;5073701;28;20041;-50
2022/06/23 00:18:04;;;;;;;10.07;7.75;;;14.30;99.90;;;;;;5073503;28;20049;-49
2022/06/23 00:20:47;;;;;;;9.82;7.53;;;14.30;99.90;;;;;;5073704;28;20044;-49
2022/06/23 00:23:21;;;;;;;9.70;7.32;;;14.30;99.90;;;;;;5073598;28;20059;-49
2022/06/23 00:26:01;;;;;;;10.48;7.30;;;14.20;99.90;;;;;;5073525;28;20395;-52
2022/06/23 00:28:42;;;;;;;8.70;7.10;;;14.20;99.90;;;;;;5073388;28;20541;-53
2022/06/23 00:31:27;;;;;;;8.23;6.63;;;14.10;99.90;;;;;;5073458;28;20044;-52
2022/06/23 00:33:53;;;;;;;8.57;6.70;;;14.10;99.90;;;;;;5073264;28;20053;-49
2022/06/23 00:36:43;;;;;;;7.63;6.82;;;14.00;99.90;;;;;;5073330;28;20051;-50
2022/06/23 00:39:23;;;;;;;8.43;7.32;;;14.00;99.90;;;;;;5073395;28;20054;-50
2022/06/23 00:41:49;;;;;;;9.63;6.88;;;14.00;99.90;;;;;;5073267;28;20040;-49
2022/06/23 00:44:29;;;;;;;7.20;6.50;;;14.00;99.90;;;;;;5073251;28;20056;-48
2022/06/23 00:46:58;;;;;;;6.85;6.15;;;14.00;99.90;;;;;;5073022;28;20055;-49
2022/06/23 00:49:27;;;;;;;7.18;6.47;;;13.90;99.90;;;;;;5073221;28;20051;-50
2022/06/23 00:51:57;;;;;;;8.25;5.97;;;13.90;99.90;;;;;;5073163;28;20036;-51
2022/06/23 00:54:35;;;;;;;6.78;6.07;;;13.90;99.90;;;;;;5072733;28;20048;-48
2022/06/23 00:57:09;;;;;;;9.00;6.13;;;13.80;99.90;;;;;;5073610;28;20040;-49
2022/06/23 00:59:44;;;;;;;8.82;7.00;;;13.90;99.90;;;;;;5073009;28;20401;-50
2022/06/23 01:02:16;;;;;;;9.23;6.70;;;13.80;99.90;;;;;;5073239;28;20072;-47
2022/06/23 01:05:00;;;;;;;7.88;6.78;;;13.80;99.90;;;;;;5073317;28;20055;-51
2022/06/23 01:07:44;;;;;;;8.18;6.70;;;13.80;99.90;;;;;;5072903;28;20518;-50
2022/06/23 01:10:47;;;;;;;8.57;7.05;;;13.70;99.90;;;;;;5073050;28;20093;-50
2022/06/23 01:13:46;;;;;;;7.05;6.25;;;13.70;99.90;;;;;;5050472;28;20048;-51
2022/06/23 01:16:15;;;;;;;8.23;6.20;;;13.90;99.90;;;;;;5029207;28;20065;-52
2022/06/23 01:18:51;;;;;;;7.00;6.07;;;13.70;99.90;;;;;;5050024;28;20472;-49
2022/06/23 01:21:22;;;;;;;7.45;6.70;;;13.60;99.90;;;;;;5050485;28;20128;-50
2022/06/23 01:23:56;;;;;;;8.10;7.00;;;13.60;99.90;;;;;;5034056;28;20045;-49
2022/06/23 01:26:29;;;;;;;7.97;7.18;;;13.80;99.90;;;;;;5050637;28;20072;-49
2022/06/23 01:29:12;;;;;;;8.85;7.00;;;13.50;99.90;;;;;;5050450;28;20499;-49
2022/06/23 01:31:50;;;;;;;8.18;6.88;;;13.70;99.90;;;;;;5050438;28;20045;-49
2022/06/23 01:34:24;;;;;;;7.97;6.97;;;13.70;99.90;;;;;;5050403;28;20056;-50
2022/06/23 01:37:05;;;;;;;8.73;6.95;;;13.70;99.90;;;;;;5050531;28;20098;-51
2022/06/23 01:40:00;;;;;;;9.93;7.15;;;13.50;99.90;;;;;;5050353;28;20156;-53
2022/06/23 01:42:39;;;;;;;7.88;7.07;;;13.50;99.90;;;;;;5037515;28;20523;-50
2022/06/23 01:45:43;;;;;;;10.20;6.90;;;13.50;99.90;;;;;;5050390;28;20053;-49
2022/06/23 01:48:51;;;;;;;8.77;7.43;;;13.40;99.90;;;;;;5070575;28;20102;-50
2022/06/23 01:51:05;;;;;;;7.75;6.80;;;13.40;99.90;;;;;;5072590;28;20053;-53
2022/06/23 01:53:33;;;;;;;8.27;7.45;;;13.30;99.90;;;;;;5072386;28;20445;-52
2022/06/23 01:56:03;;;;;;;10.45;7.35;;;13.30;99.90;;;;;;5072663;28;20048;-49
2022/06/23 01:58:39;;;;;;;9.07;7.78;;;13.40;99.90;;;;;;5072566;28;20128;-54
2022/06/23 02:01:06;;;;;;;8.13;7.32;;;13.30;99.90;;;;;;5072471;28;20053;-50
2022/06/23 02:03:40;;;;;;;8.55;7.07;;;13.30;99.90;;;;;;5072360;28;20513;-47
2022/06/23 02:06:29;;;;;;;8.85;7.93;;;13.30;99.90;;;;;;5072767;28;20045;-47
2022/06/23 02:09:19;;;;;;;8.73;7.88;;;13.20;99.90;;;;;;5072487;28;20044;-47
2022/06/23 02:11:49;;;;;;;8.07;7.35;;;13.20;99.90;;;;;;5072347;28;20105;-47
2022/06/23 02:14:41;;;;;;;9.98;8.07;;;13.20;99.90;;;;;;5072192;28;20513;-46
2022/06/23 02:17:25;;;;;;;9.50;7.22;;;13.20;99.90;;;;;;5072205;28;20487;-46
2022/06/23 02:19:54;;;;;;;8.35;6.90;;;13.10;99.90;;;;;;5072151;28;20422;-48
2022/06/23 02:22:34;;;;;;;7.85;6.93;;;13.10;99.90;;;;;;5070947;28;20048;-47
2022/06/23 02:25:25;;;;;;;7.88;6.95;;;13.20;99.90;;;;;;5072305;28;20040;-48
2022/06/23 02:27:53;;;;;;;8.90;8.10;;;13.10;99.90;;;;;;5072225;28;20041;-51
2022/06/23 02:30:28;;;;;;;8.57;7.78;;;13.00;99.90;;;;;;5074237;28;20048;-51
2022/06/23 02:33:04;;;;;;;9.52;8.43;;;13.20;99.90;;;;;;5076198;28;20052;-50
2022/06/23 02:35:55;;;;;;;9.38;8.25;;;13.00;99.90;;;;;;5075661;28;20139;-50
2022/06/23 02:38:45;;;;;;;8.80;7.97;;;13.00;99.90;;;;;;5075660;28;20041;-49
2022/06/23 02:41:40;;;;;;;8.73;7.93;;;13.00;99.90;;;;;;5075404;28;20055;-48
2022/06/23 02:44:24;;;;;;;8.98;8.07;;;12.90;99.90;;;;;;5075708;28;20040;-50
2022/06/23 02:47:17;;;;;;;9.93;8.18;;;12.90;99.90;;;;;;5075503;28;20165;-51
2022/06/23 02:50:16;;;;;;;10.48;8.20;;;12.90;99.90;;;;;;5075514;28;20072;-50
2022/06/23 02:53:09;;;;;;;9.88;8.75;;;12.90;99.90;;;;;;5075122;28;20494;-52
2022/06/23 02:56:16;;;;;;;9.98;8.50;;;12.90;99.90;;;;;;5075472;28;20130;-49
2022/06/23 02:58:45;;;;;;;;;;;12.90;99.90;;;;;;5075784;28;20045;-50
2022/06/23 03:01:32;;;;;;;9.15;8.30;;;12.80;99.90;;;;;;5075256;28;19927;-52
2022/06/23 03:04:01;;;;;;;11.88;8.65;;;12.90;99.90;;;;;;5075188;28;20041;-50
2022/06/23 03:06:33;;;;;;;8.90;8.00;;;12.90;99.90;;;;;;5074972;28;20410;-53
2022/06/23 03:08:58;;;;;;;9.43;8.23;;;12.80;99.90;;;;;;5075241;28;20036;-53
2022/06/23 03:11:51;;;;;;;10.45;8.43;;;12.80;99.90;;;;;;5075133;28;20041;-51
2022/06/23 03:14:48;;;;;;;9.48;8.57;;;12.80;99.90;;;;;;5074924;28;20040;-51
2022/06/23 03:17:37;;;;;;;11.38;8.70;;;12.80;99.90;;;;;;5103573;28;20056;-52
2022/06/23 03:20:30;;;;;;;9.25;8.30;;;12.80;99.90;;;;;;5074858;28;20079;-49
2022/06/23 03:23:05;;;;;;;9.73;8.52;;;12.80;99.90;;;;;;5073568;28;20495;-51
2022/06/23 03:26:09;;;;;;;9.43;8.43;;;12.80;99.90;;;;;;5075045;28;20043;-52
2022/06/23 03:28:46;;;;;;;9.18;8.10;;;12.80;99.90;;;;;;5052477;28;20469;-49
2022/06/23 03:31:22;;;;;;;9.98;8.60;;;12.80;99.90;;;;;;5052527;28;20503;-48
2022/06/23 03:34:02;;;;;;;10.13;8.30;;;12.80;99.90;;;;;;5052220;28;20423;-49
2022/06/23 03:36:55;;;;;;;9.88;8.73;;;12.80;99.90;;;;;;5052329;28;20049;-49
2022/06/23 03:42:33;;;;;;;10.38;8.95;;;12.90;99.90;;;;;;5052240;28;20410;-51
2022/06/23 03:45:11;;;;;;;9.82;8.07;;;12.90;99.90;;;;;;5052052;28;20049;-51
2022/06/23 03:47:45;;;;;;;8.82;7.82;;;12.90;99.90;;;;;;5052199;28;20036;-48
2022/06/23 03:50:57;;;;;;;9.48;8.57;;;12.90;99.90;;;;;;5052110;28;20511;-50
2022/06/23 03:53:36;;;;;;;9.13;8.10;;;12.90;99.90;;;;;;5038625;28;20049;-53
2022/06/23 03:56:07;;;;;;;12.48;9.35;;;12.90;99.90;;;;;;5052020;28;20115;-48
2022/06/23 03:58:43;;;;;;;9.27;8.25;;;12.90;99.90;;;;;;5051849;28;20049;-50
2022/06/23 04:01:11;;;;;;;11.77;9.32;;;13.00;99.90;;;;;;5051945;28;20045;-48
2022/06/23 04:03:54;;;;;;;9.38;8.45;;;13.10;99.90;;;;;;5051826;28;20041;-51
2022/06/23 04:06:40;;;;;;;9.85;8.60;;;13.10;99.90;;;;;;5073946;28;20044;-50
2022/06/23 04:09:36;;;;;;;9.98;9.00;;;12.90;99.90;;;;;;5073763;28;20044;-48
2022/06/23 04:12:04;;;;;;;9.32;8.43;;;13.20;99.90;;;;;;5073905;28;20040;-51
2022/06/23 04:14:37;;;;;;;10.25;9.15;;;13.10;99.90;;;;;;5073747;28;20044;-52
2022/06/23 04:17:25;;;;;;;9.85;8.88;;;13.10;99.90;;;;;;5073778;28;20045;-53
2022/06/23 04:20:00;;;;;;;9.70;8.80;;;13.20;99.90;;;;;;5073799;28;20049;-52
2022/06/23 04:22:46;;;;;;;12.55;9.10;;;13.20;99.90;;;;;;5073783;28;20040;-50
2022/06/23 04:25:18;;;;;;;9.20;8.30;;;13.30;99.90;;;;;;5073767;28;20041;-51
2022/06/23 04:27:53;;;;;;;9.32;8.43;;;13.30;99.90;;;;;;5073446;28;20044;-51
2022/06/23 04:30:39;;;;;;;8.85;8.05;;;13.40;99.90;;;;;;5073695;28;20044;-53
2022/06/23 04:33:13;;;;;;;10.77;9.05;;;13.50;99.90;;;;;;5073516;28;20049;-52
2022/06/23 04:35:40;;;;;;;10.95;9.20;;;13.60;99.90;;;;;;5073086;28;20372;-51
2022/06/23 04:38:12;;;;;;;10.05;9.02;;;14.50;99.90;;;;;;5072313;28;20098;-51
2022/06/23 04:40:49;;;;;;;10.13;8.68;;;15.80;99.90;;;;;;5073473;28;20044;-49
2022/06/23 04:43:44;;;;;;;9.43;8.50;;;17.20;99.90;;;;;;5073506;28;20040;-49
2022/06/23 04:46:31;;;;;;;8.60;7.80;;;18.30;99.90;;;;;;5073187;28;20045;-52
2022/06/23 04:48:58;;;;;;;9.15;7.30;;;19.20;99.90;;;;;;5073401;28;20048;-49
2022/06/23 04:51:38;;;;;;;8.77;7.88;;;19.90;99.90;;;;;;5071784;28;20080;-52
2022/06/23 04:54:19;;;;;;;7.60;6.90;;;20.80;99.90;;;;;;5072728;28;20056;-49
2022/06/23 04:57:19;;;;;;;7.10;6.40;;;21.70;99.90;;;;;;5073566;28;20044;-49
2022/06/23 04:59:53;;;;;;;7.80;6.82;;;22.20;99.90;;;;;;5071284;28;20048;-52
2022/06/23 05:02:21;;;;;;;7.30;6.50;;;22.80;99.90;;;;;;5073133;28;20126;-52
2022/06/23 05:05:00;;;;;;;7.15;6.20;;;23.10;99.90;;;;;;5073055;28;20044;-51
2022/06/23 05:07:35;;;;;;;6.75;5.75;;;23.70;99.90;;;;;;5072943;28;20044;-53
2022/06/23 05:10:06;;;;;;;10.52;5.68;;;24.00;99.90;;;;;;5072848;28;20487;-52
2022/06/23 05:12:44;;;;;;;6.32;5.72;;;24.30;99.90;;;;;;5073052;28;20117;-52
2022/06/23 05:15:17;;;;;;;6.20;5.57;;;23.80;99.90;;;;;;5071762;28;20048;-53
2022/06/23 05:17:53;;;;;;;6.72;6.03;;;24.10;99.90;;;;;;5072797;28;20048;-53
2022/06/23 05:20:30;;;;;;;6.40;5.57;;;25.10;99.90;;;;;;5073185;28;20050;-52
2022/06/23 05:22:56;;;;;;;6.53;5.60;;;25.20;99.90;;;;;;5071484;28;20517;-52
2022/06/23 05:25:37;;;;;;;6.22;5.63;;;25.60;99.90;;;;;;5072852;28;20036;-49
2022/06/23 05:28:12;;;;;;;5.63;4.97;;;25.40;99.90;;;;;;5072838;28;20076;-53
2022/06/23 05:30:45;;;;;;;7.93;5.68;;;25.50;99.90;;;;;;5072881;28;20048;-50
2022/06/23 05:33:16;;;;;;;6.50;5.57;;;25.10;98.70;;;;;;5072885;28;20052;-53
2022/06/23 05:35:47;;;;;;;9.27;6.53;;;25.60;99.90;;;;;;5072765;28;20048;-50
2022/06/23 05:38:34;;;;;;;7.75;5.60;;;25.50;97.30;;;;;;5072892;28;20402;-51
2022/06/23 05:41:07;;;;;;;7.43;5.45;;;25.60;96.30;;;;;;5072784;28;20041;-52
2022/06/23 05:43:40;;;;;;;5.97;5.35;;;26.10;97.80;;;;;;5072729;28;20177;-53
2022/06/23 05:46:06;;;;;;;6.85;5.43;;;26.00;96.10;;;;;;5072581;28;20044;-52
2022/06/23 05:48:43;;;;;;;6.17;5.47;;;26.40;96.60;;;;;;5072662;28;20041;-53
2022/06/23 05:51:21;;;;;;;7.07;5.47;;;;;;;;;;5072618;28;20409;-51
2022/06/23 05:54:03;;;;;;;6.03;5.47;;;26.50;95.80;;;;;;5072561;28;20178;-50
2022/06/23 05:56:51;;;;;;;6.00;5.45;;;27.10;95.60;;;;;;5072957;28;20152;-52
2022/06/23 05:59:39;;;;;;;6.00;5.32;;;27.40;94.90;;;;;;5072548;28;20051;-50
2022/06/23 06:02:22;;;;;;;6.65;5.32;;;27.30;93.90;;;;;;5050238;28;20057;-51
2022/06/23 06:04:55;;;;;;;7.90;5.45;;;27.70;93.40;;;;;;5053405;28;20057;-51
2022/06/23 06:07:26;;;;;;;7.60;6.35;;;27.80;93.00;;;;;;5053964;28;20500;-52
2022/06/23 06:09:53;;;;;;;6.75;5.47;;;28.00;91.80;;;;;;5054175;28;20052;-51
2022/06/23 06:12:19;;;;;;;;;;;28.20;92.20;;;;;;5054384;28;20037;-53
2022/06/23 06:14:54;;;;;;;6.07;5.32;;;28.30;90.30;;;;;;5053858;28;19943;-52
2022/06/23 06:17:24;;;;;;;5.55;5.05;;;28.00;89.60;;;;;;5054008;28;20045;-49
2022/06/23 06:19:51;;;;;;;6.85;5.22;;;27.50;90.00;;;;;;5053621;28;20057;-53
2022/06/23 06:22:31;;;;;;;7.13;5.80;;;26.80;90.80;;;;;;5053603;28;20084;-51
2022/06/23 06:25:00;;;;;;;5.88;5.25;;;27.80;90.50;;;;;;5053700;28;20083;-48
2022/06/23 06:27:26;;;;;;;6.82;5.65;;;27.30;89.10;;;;;;5053545;28;20044;-51
2022/06/23 06:29:52;;;;;;;6.03;5.47;;;27.10;88.50;;;;;;5053778;28;20128;-49
2022/06/23 06:32:34;;;;;;;6.05;4.95;;;27.20;90.10;;;;;;5053607;28;20141;-50
2022/06/23 06:35:12;;;;;;;6.30;5.53;;;27.30;90.10;;;;;;5036900;28;20087;-49
2022/06/23 06:37:43;;;;;;;5.88;5.35;;;27.10;89.70;;;;;;5037050;28;20067;-52
2022/06/23 06:40:09;;;;;;;14.68;5.63;;;27.50;88.50;;;;;;5074241;28;20060;-49
2022/06/23 06:42:45;;;;;;;6.63;5.72;;;27.50;87.90;;;;;;5075653;28;20113;-49
2022/06/23 06:45:14;;;;;;;6.28;5.68;;;27.40;87.50;;;;;;5074283;28;20040;-50
2022/06/23 06:47:41;;;;;;;6.70;4.60;;;27.90;87.50;;;;;;5075664;28;20189;-49
2022/06/23 06:50:31;;;;;;;6.47;5.72;;;28.50;89.80;;;;;;5057419;28;20462;-49
2022/06/23 06:53:03;;;;;;;5.65;5.10;;;28.40;87.80;;;;;;5075421;28;20048;-52
2022/06/23 06:55:42;;;;;;;5.97;4.72;;;28.80;86.60;;;;;;5075168;28;20154;-48
2022/06/23 06:58:13;;;;;;;6.25;5.40;;;29.10;85.80;;;;;;5075443;28;20402;-51
2022/06/23 07:01:06;;;;;;;5.72;5.22;;;29.00;83.90;;;;;;5075259;28;20047;-52
2022/06/23 07:03:35;;;;;;;5.72;5.07;;;28.60;82.30;;;;;;5072487;28;20055;-50
2022/06/23 07:06:14;;;;;;;6.93;5.20;;;29.10;82.60;;;;;;5074532;28;20041;-52
2022/06/23 07:08:51;;;;;;;5.97;5.30;;;28.90;80.90;;;;;;5074620;28;20482;-51
2022/06/23 07:11:33;;;;;;;6.45;5.28;;;28.30;83.00;;;;;;5074470;28;20044;-49
2022/06/23 07:14:10;;;;;;;6.57;4.93;;;28.60;83.90;;;;;;5074345;28;20045;-52
2022/06/23 07:16:44;;;;;;;8.15;4.45;;;28.20;82.50;;;;;;5073602;28;20056;-51
2022/06/23 07:19:15;;;;;;;5.50;4.50;;;28.30;82.50;;;;;;5074398;28;20056;-49
2022/06/23 07:22:00;;;;;;;6.03;4.15;;;27.70;83.30;;;;;;5074455;28;20041;-50
2022/06/23 07:24:51;;;;;;;5.28;4.78;;;28.10;83.90;;;;;;5074578;28;20072;-49
2022/06/23 07:28:02;;;;;;;6.93;4.70;;;27.60;82.80;;;;;;5074540;28;20101;-52
2022/06/23 07:30:33;;;;;;;4.63;4.13;;;28.20;83.20;;;;;;5069283;28;20044;-51
2022/06/23 07:33:14;;;;;;;7.57;4.90;;;28.40;80.90;;;;;;5074750;28;20055;-52
2022/06/23 07:35:51;;;;;;;4.55;3.80;;;27.80;80.60;;;;;;5074756;28;20063;-50
2022/06/23 07:38:16;;;;;;;8.10;4.20;;;28.30;82.80;;;;;;5074673;28;20051;-51
2022/06/23 07:40:50;;;;;;;7.25;4.20;;;28.00;80.80;;;;;;5074442;28;20425;-51
2022/06/23 07:43:44;;;;;;;6.75;4.30;;;27.90;81.20;;;;;;5074315;28;20403;-52
2022/06/23 07:46:10;;;;;;;5.53;4.13;;;27.70;82.10;;;;;;5073187;28;20044;-53
2022/06/23 07:48:37;;;;;;;9.75;4.40;;;27.00;83.00;;;;;;5074283;28;20101;-53
2022/06/23 07:51:08;;;;;;;4.82;4.43;;;27.10;83.80;;;;;;5074276;28;20041;-48
2022/06/23 07:53:38;;;;;;;4.63;4.22;;;26.60;85.70;;;;;;5073907;28;20056;-51
2022/06/23 07:56:05;;;;;;;6.03;4.47;;;26.20;88.60;;;;;;5073997;28;20119;-53
2022/06/23 07:58:34;;;;;;;5.72;4.65;;;25.80;88.20;;;;;;5074232;28;20040;-52
2022/06/23 08:01:10;;;;;;;6.05;4.53;;;25.50;88.40;;;;;;5074070;28;20127;-52
2022/06/23 08:04:03;;;;;;;5.47;4.68;;;25.60;90.00;;;;;;5074107;28;20080;-48
2022/06/23 08:06:30;;;;;;;6.97;4.82;;;25.50;91.30;;;;;;5073790;28;20515;-49
2022/06/23 08:09:01;;;;;;;5.82;3.95;;;25.30;90.00;;;;;;5073980;28;20052;-52
2022/06/23 08:14:22;;;;;;;8.73;4.32;;;25.40;91.40;;;;;;5073506;28;20418;-53
2022/06/23 08:16:51;;;;;;;5.88;3.70;;;25.50;91.30;;;;;;5073184;28;20049;-51
2022/06/23 08:19:29;;;;;;;7.32;4.40;;;25.70;90.80;;;;;;5071865;28;20185;-51
2022/06/23 08:22:02;;;;;;;5.65;3.97;;;25.60;90.40;;;;;;5073235;28;20470;-51
2022/06/23 08:24:29;;;;;;;6.13;4.15;;;25.80;91.20;;;;;;5071811;28;20049;-50
2022/06/23 08:27:07;;;;;;;5.07;4.30;;;25.80;90.70;;;;;;5073098;28;20102;-49
2022/06/23 08:29:47;;;;;;;7.40;3.53;;;26.00;91.30;;;;;;5073007;28;20050;-48
2022/06/23 08:32:14;;;;;;;4.72;4.00;;;26.20;91.30;;;;;;5072942;28;20499;-51
2022/06/23 08:34:50;;;;;;;5.03;4.15;;;26.10;90.00;;;;;;5073074;28;20120;-52
2022/06/23 08:37:20;;;;;;;5.75;3.47;;;26.10;90.00;;;;;;5072829;28;20098;-49
2022/06/23 08:39:52;;;;;;;5.15;4.00;;;26.20;89.80;;;;;;5072902;28;20041;-51
2022/06/23 08:42:29;;;;;;;4.68;3.40;;;26.30;89.40;;;;;;5072829;28;20047;-51
2022/06/23 08:45:21;;;;;;;5.75;4.30;;;26.50;89.80;;;;;;5071717;28;20087;-53
2022/06/23 08:47:55;;;;;;;7.95;4.07;;;26.60;90.00;;;;;;5072821;28;20048;-50
2022/06/23 08:50:35;;;;;;;7.03;4.47;;;27.00;90.30;;;;;;5072618;28;20090;-49
2022/06/23 08:53:25;;;;;;;4.00;3.60;;;26.80;88.70;;;;;;5072273;28;20058;-49
2022/06/23 08:56:15;;;;;;;5.97;3.40;;;26.90;87.90;;;;;;5072531;28;20131;-51
2022/06/23 08:58:50;;;;;;;5.97;3.55;;;26.90;88.20;;;;;;5073103;28;20049;-52
2022/06/23 09:01:30;;;;;;;6.45;3.60;;;27.10;88.00;;;;;;5072438;28;20199;-50
2022/06/23 09:04:09;;;;;;;4.55;3.20;;;27.30;86.70;;;;;;5072441;28;20383;-49
2022/06/23 09:06:47;;;;;;;5.20;3.80;;;27.30;89.00;;;;;;5072343;28;20044;-51
2022/06/23 09:09:35;;;;;;;6.43;3.80;;;27.30;88.20;;;;;;5072392;28;20044;-53
2022/06/23 09:12:03;;;;;;;5.20;3.28;;;27.60;88.20;;;;;;5072226;28;20527;-51
2022/06/23 09:15:04;;;;;;;7.53;3.75;;;27.40;89.50;;;;;;5072289;28;20044;-48
2022/06/23 09:17:38;;;;;;;4.10;3.70;;;27.30;88.20;;;;;;5070982;28;20542;-50
2022/06/23 09:20:20;;;;;;;5.45;3.40;;;27.60;87.80;;;;;;5072628;28;20051;-49
2022/06/23 09:23:05;;;;;;;6.47;3.70;;;27.50;86.70;;;;;;5072295;28;20487;-51
2022/06/23 09:26:04;;;;;;;4.18;2.88;;;27.60;86.00;;;;;;5072326;28;20054;-49
2022/06/23 09:28:38;;;;;;;4.50;3.45;;;27.80;86.40;;;;;;5070971;28;20044;-49
2022/06/23 09:31:55;;;;;;;5.05;3.88;;;28.10;88.10;;;;;;5072139;28;20486;-50
2022/06/23 09:34:42;;;;;;;6.75;3.45;;;28.20;85.80;;;;;;5059884;28;20059;-51
2022/06/23 09:37:21;;;;;;;6.45;4.18;;;28.10;85.60;;;;;;5072242;28;20040;-52
2022/06/23 09:40:02;;;;;;;3.95;3.38;;;28.00;84.70;;;;;;5075380;28;20402;-49
2022/06/23 09:42:57;;;;;;;3.03;2.78;;;28.10;83.80;;;;;;5076221;28;20403;-52
2022/06/23 09:45:41;;;;;;;7.20;3.50;;;28.20;85.30;;;;;;5076368;28;20430;-50
2022/06/23 09:48:25;;;;;;;5.68;3.05;;;28.00;84.40;;;;;;5076144;28;20514;-51
2022/06/23 09:51:08;;;;;;;10.75;3.20;;;28.20;83.20;;;;;;5075809;28;20087;-49
2022/06/23 09:54:03;;;;;;;4.03;2.90;;;28.40;81.60;;;;;;5075845;28;20107;-47
2022/06/23 09:56:53;;;;;;;4.53;2.50;;;28.50;82.20;;;;;;5075527;28;20045;-51
2022/06/23 09:59:31;;;;;;;3.30;2.30;;;28.40;79.50;;;;;;5074542;28;20049;-49
2022/06/23 10:02:05;;;;;;;5.13;2.53;;;28.80;79.90;;;;;;5076185;28;20040;-49
2022/06/23 10:04:59;;;;;;;4.15;2.90;;;28.80;76.60;;;;;;5075845;28;20094;-51
2022/06/23 10:07:37;;;;;;;4.15;2.85;;;28.90;80.60;;;;;;5074346;28;20403;-53
2022/06/23 10:10:08;;;;;;;7.13;3.13;;;28.80;78.80;;;;;;5075628;28;20425;-50
2022/06/23 10:13:01;;;;;;;4.82;2.53;;;29.00;76.60;;;;;;5075708;28;20048;-49
2022/06/23 10:15:35;;;;;;;4.57;2.33;;;29.20;75.50;;;;;;5074214;28;20045;-50
2022/06/23 10:18:24;;;;;;;7.55;2.30;;;29.40;76.10;;;;;;5075884;28;20071;-49
2022/06/23 10:21:08;;;;;;;2.72;2.38;;;29.50;76.50;;;;;;5071777;28;20132;-53
2022/06/23 10:23:44;;;;;;;5.10;2.63;;;29.50;75.80;;;;;;5075497;28;20571;-52
2022/06/23 10:26:39;;;;;;;5.45;2.22;;;29.50;75.00;;;;;;5075301;28;20499;-53
2022/06/23 10:29:30;;;;;;;3.20;2.13;;;29.60;76.20;;;;;;5066975;28;20454;-53
2022/06/23 10:31:58;;;;;;;3.45;2.05;;;29.90;74.20;;;;;;5063778;28;20080;-53
2022/06/23 10:34:36;;;;;;;3.17;2.20;;;30.00;73.70;;;;;;5074914;28;20041;-50
2022/06/23 10:37:22;;;;;;;3.10;1.85;;;30.10;71.90;;;;;;5075151;28;20079;-50
2022/06/23 10:40:27;;;;;;;4.25;2.30;;;30.10;70.40;;;;;;5075461;28;20044;-49
2022/06/23 10:43:14;;;;;;;3.78;2.17;;;30.10;71.90;;;;;;5070760;28;20055;-53
2022/06/23 10:45:56;;;;;;;4.00;2.00;;;30.20;70.90;;;;;;5075866;28;20036;-50
2022/06/23 10:48:35;;;;;;;3.08;2.05;;;30.40;70.00;;;;;;5075461;28;20058;-51
2022/06/23 10:51:46;;;;;;;3.00;2.20;;;30.40;68.00;;;;;;5074316;28;20108;-50
2022/06/23 10:54:29;;;;;;;3.72;1.90;;;30.60;67.90;;;;;;5075257;28;20513;-49
2022/06/23 10:57:01;;;;;;;3.38;1.80;;;30.70;68.80;;;;;;5075382;28;20051;-49
2022/06/23 11:00:03;;;;;;;4.55;2.13;;;30.90;69.90;;;;;;5075199;28;20055;-50
2022/06/23 11:02:53;;;;;;;5.90;2.20;;;31.00;68.00;;;;;;5075352;28;20093;-53
2022/06/23 11:05:49;;;;;;;4.90;2.20;;;31.00;68.20;;;;;;5075324;28;20051;-51
2022/06/23 11:08:42;;;;;;;4.68;1.90;;;30.90;67.20;;;;;;5075370;28;20059;-54
2022/06/23 11:11:37;;;;;;;2.42;1.90;;;31.00;66.50;;;;;;5075199;28;20049;-49
2022/06/23 11:14:10;;;;;;;2.70;1.80;;;31.10;66.60;;;;;;5074812;28;20056;-51
2022/06/23 11:17:04;;;;;;;3.38;1.77;;;31.20;65.60;;;;;;5075259;28;20060;-53
2022/06/23 11:19:52;;;;;;;5.05;2.10;;;31.30;65.50;;;;;;5074957;28;20040;-50
2022/06/23 11:22:47;;;;;;;3.50;1.80;;;31.40;65.30;;;;;;5074735;28;20093;-50
2022/06/23 11:25:19;;;;;;;2.42;1.85;;;31.30;64.50;;;;;;5074900;28;20040;-54
2022/06/23 11:28:22;;;;;;;2.28;1.60;;;31.30;63.70;;;;;;5074737;28;20080;-50
2022/06/23 11:31:03;;;;;;;3.92;1.88;;;31.20;60.90;;;;;;5074520;28;20049;-51
2022/06/23 11:34:02;;;;;;;3.25;1.80;;;31.00;61.40;;;;;;5074727;28;20052;-51
2022/06/23 11:36:59;;;;;;;4.43;1.80;;;31.10;62.50;;;;;;5074646;28;20070;-50
2022/06/23 11:39:37;;;;;;;5.63;1.50;;;31.30;62.40;;;;;;5074688;28;20190;-53
2022/06/23 11:42:12;;;;;;;2.85;1.83;;;31.50;60.60;;;;;;5074691;28;20051;-52
2022/06/23 11:45:04;;;;;;;2.90;2.00;;;31.60;60.00;;;;;;5074314;28;20044;-51
2022/06/23 11:47:45;;;;;;;3.88;2.05;;;31.70;60.50;;;;;;5074144;28;20399;-51
2022/06/23 11:50:35;;;;;;;4.10;2.00;;;31.80;60.30;;;;;;5074383;28;20048;-49
2022/06/23 11:53:09;;;;;;;3.05;1.80;;;31.90;60.60;;;;;;5074350;28;20074;-49
2022/06/23 11:55:48;;;;;;;4.65;2.20;;;32.00;60.40;;;;;;5073949;28;20044;-51
2022/06/23 11:58:32;;;;;;;3.17;1.70;;;32.10;60.30;;;;;;5074198;28;20049;-53
2022/06/23 12:01:06;;;;;;;3.38;1.90;;;32.00;58.90;;;;;;5073690;28;20127;-49
2022/06/23 12:03:46;;;;;;;4.25;2.33;;;31.90;58.30;;;;;;5074055;28;20054;-50
2022/06/23 12:06:49;;;;;;;3.75;1.98;;;31.80;57.40;;;;;;5074026;28;20119;-50
2022/06/23 12:09:30;;;;;;;3.20;1.88;;;32.00;58.40;;;;;;5051568;28;20547;-51
2022/06/23 12:11:58;;;;;;;2.13;1.90;;;32.00;57.80;;;;;;5051845;28;20069;-51
2022/06/23 12:14:26;;;;;;;2.97;1.75;;;31.70;56.00;;;;;;5051443;28;20041;-53
2022/06/23 12:17:08;;;;;;;4.80;1.80;;;31.90;58.70;;;;;;5051591;28;20075;-50
2022/06/23 12:20:11;;;;;;;2.35;1.80;;;31.80;56.30;;;;;;5051572;28;20055;-53
2022/06/23 12:22:44;;;;;;;2.85;1.52;;;32.00;56.80;;;;;;5051493;28;20041;-53
2022/06/23 12:25:33;;;;;;;2.83;1.83;;;32.00;55.70;;;;;;5051400;28;20049;-53
2022/06/23 12:28:17;;;;;;;3.20;1.73;;;32.20;56.30;;;;;;5051418;28;20048;-54
2022/06/23 12:30:51;;;;;;;2.28;1.70;;;32.40;56.20;;;;;;5051274;28;20049;-50
2022/06/23 12:33:36;;;;;;;3.13;1.85;;;32.30;55.20;;;;;;5051291;28;20503;-53
2022/06/23 12:36:26;;;;;;;2.80;1.80;;;32.50;55.00;;;;;;5051108;28;20044;-50
2022/06/23 12:39:06;;;;;;;4.72;1.60;;;32.30;54.00;;;;;;5034721;28;20047;-54
2022/06/23 12:41:46;;;;;;;2.40;1.95;;;32.30;54.50;;;;;;5051181;28;20045;-52
2022/06/23 12:44:28;;;;;;;3.20;1.55;;;32.10;54.20;;;;;;5070878;28;20059;-52
2022/06/23 12:47:23;;;;;;;2.75;1.67;;;32.50;56.00;;;;;;5073292;28;20049;-50
2022/06/23 12:49:55;;;;;;;2.72;1.65;;;32.60;54.50;;;;;;5073204;28;20044;-53
2022/06/23 12:52:41;;;;;;;2.80;1.70;;;32.60;54.30;;;;;;5073335;28;20045;-54
2022/06/23 12:55:13;;;;;;;1.92;1.73;;;32.80;53.60;;;;;;5073074;28;20131;-54
2022/06/23 12:58:05;;;;;;;2.65;1.60;;;32.80;55.40;;;;;;5073038;28;20040;-51
2022/06/23 13:00:34;;;;;;;4.70;1.80;;;33.00;53.50;;;;;;5073068;28;20426;-49
2022/06/23 13:03:18;;;;;;;2.17;1.60;;;33.10;54.90;;;;;;5073086;28;20445;-51
2022/06/23 13:05:54;;;;;;;2.28;2.08;;;33.10;54.10;;;;;;5072990;28;20049;-49
2022/06/23 13:08:33;;;;;;;3.07;1.97;;;33.00;54.70;;;;;;5073103;28;20056;-50
2022/06/23 13:11:11;;;;;;;3.42;1.80;;;33.10;53.40;;;;;;5073106;28;20032;-50
2022/06/23 13:13:48;;;;;;;3.65;1.95;;;32.90;52.50;;;;;;5070946;28;20396;-51
2022/06/23 13:16:34;;;;;;;3.38;1.85;;;33.10;52.60;;;;;;5072828;28;20037;-52
2022/06/23 13:19:22;;;;;;;2.55;1.80;;;33.10;52.70;;;;;;5071545;28;20048;-51
2022/06/23 13:21:48;;;;;;;4.47;1.80;;;33.10;53.60;;;;;;5073014;28;20499;-50
2022/06/23 13:24:21;;;;;;;4.38;1.90;;;33.00;53.30;;;;;;5072880;28;20098;-49
2022/06/23 13:26:52;;;;;;;3.97;2.03;;;33.10;53.30;;;;;;5072892;28;20406;-52
2022/06/23 13:29:40;;;;;;;2.95;1.83;;;33.20;52.90;;;;;;5072898;28;20051;-52
2022/06/23 13:32:25;;;;;;;2.65;1.95;;;33.10;53.80;;;;;;5072660;28;20537;-52
2022/06/23 13:35:09;;;;;;;4.43;2.08;;;33.30;52.50;;;;;;5072680;28;20040;-49
2022/06/23 13:37:41;;;;;;;2.42;2.17;;;33.20;52.10;;;;;;5072593;28;20399;-54
2022/06/23 13:40:37;;;;;;;5.32;2.00;;;33.00;53.20;;;;;;5072591;28;20048;-53
2022/06/23 13:43:06;;;;;;;2.25;1.85;;;33.10;53.10;;;;;;5072843;28;20080;-51
2022/06/23 13:45:37;;;;;;;3.60;2.17;;;33.10;53.10;;;;;;5072501;28;20064;-53
2022/06/23 13:48:12;;;;;;;2.40;2.20;;;33.20;53.70;;;;;;5072658;28;20072;-51
2022/06/23 13:51:05;;;;;;;4.43;2.50;;;33.30;52.70;;;;;;5072611;28;20556;-51
2022/06/23 13:53:42;;;;;;;4.47;2.00;;;33.10;54.10;;;;;;5072452;28;20086;-50
2022/06/23 13:56:21;;;;;;;4.90;2.03;;;33.10;52.60;;;;;;5072341;28;20045;-51
2022/06/23 13:59:05;;;;;;;3.88;2.00;;;33.20;52.90;;;;;;5072373;28;20055;-52